EIN7EG EICK-EGLL
Flight info
| Callsign | EIN7EG |
|---|---|
| Flight time | 1h 1m |
| Altitude | 35000 |
| Route | GOTEM1Q GOTEM DCT EVRIN DCT JETZI DCT AMFUL DCT ORZEB/N0367F230 P2 SIRIC |
| Aircraft | A320/M-SDE3FGHIRWY/LB1 |
Departure
| Time | 2026-04-30 18:27 |
|---|---|
| Airport | Cork International Airport (EICK) |
Arrival
| Time | 2026-04-30 19:29 |
|---|---|
| Airport | London Heathrow Airport (EGLL) |
| Time | Latitude | Longitude | Altitude | Speed | Heading |
|---|---|---|---|---|---|
| 2026-04-30 18:09 | 51.84938 | -8.49118 | 503 ft | 0 kts | 70° |
| 2026-04-30 18:20 | 51.84936 | -8.49126 | 503 ft | 4 kts | 70° |
| 2026-04-30 18:21 | 51.84927 | -8.49167 | 503 ft | 4 kts | 70° |
| 2026-04-30 18:21 | 51.84921 | -8.49193 | 503 ft | 2 kts | 70° |
| 2026-04-30 18:21 | 51.84906 | -8.49235 | 503 ft | 4 kts | 27° |
| 2026-04-30 18:21 | 51.84881 | -8.49242 | 503 ft | 4 kts | 347° |
| 2026-04-30 18:22 | 51.84857 | -8.49229 | 503 ft | 3 kts | 340° |
| 2026-04-30 18:22 | 51.84853 | -8.49227 | 503 ft | 0 kts | 340° |
| 2026-04-30 18:24 | 51.84912 | -8.49260 | 503 ft | 12 kts | 343° |
| 2026-04-30 18:24 | 51.85014 | -8.49309 | 503 ft | 16 kts | 340° |
| 2026-04-30 18:24 | 51.85109 | -8.49365 | 503 ft | 10 kts | 340° |
| 2026-04-30 18:25 | 51.85150 | -8.49439 | 501 ft | 10 kts | 267° |
| 2026-04-30 18:25 | 51.85077 | -8.49528 | 489 ft | 13 kts | 205° |
| 2026-04-30 18:25 | 51.84996 | -8.49593 | 487 ft | 9 kts | 207° |
| 2026-04-30 18:26 | 51.84916 | -8.49572 | 481 ft | 21 kts | 160° |
| 2026-04-30 18:26 | 51.84515 | -8.49335 | 481 ft | 98 kts | 160° |
| 2026-04-30 18:26 | 51.83683 | -8.48840 | 560 ft | 146 kts | 157° |
| 2026-04-30 18:27 | 51.81976 | -8.47283 | 1886 ft | 150 kts | 118° |
| 2026-04-30 18:27 | 51.81775 | -8.45521 | 2234 ft | 174 kts | 91° |
| 2026-04-30 18:28 | 51.81859 | -8.41124 | 3065 ft | 218 kts | 91° |
| 2026-04-30 18:28 | 51.81891 | -8.38530 | 3561 ft | 242 kts | 91° |
| 2026-04-30 18:28 | 51.81958 | -8.32822 | 5213 ft | 261 kts | 91° |
| 2026-04-30 18:29 | 51.81993 | -8.29854 | 6132 ft | 266 kts | 92° |
| 2026-04-30 18:29 | 51.82088 | -8.20776 | 8902 ft | 275 kts | 95° |
| 2026-04-30 18:30 | 51.82142 | -8.14483 | 10501 ft | 293 kts | 95° |
| 2026-04-30 18:30 | 51.82183 | -8.07520 | 11564 ft | 321 kts | 95° |
| 2026-04-30 18:31 | 51.82213 | -8.03885 | 12416 ft | 325 kts | 95° |
| 2026-04-30 18:31 | 51.82281 | -7.96441 | 14095 ft | 334 kts | 95° |
| 2026-04-30 18:32 | 51.82340 | -7.88911 | 15559 ft | 339 kts | 95° |
| 2026-04-30 18:32 | 51.82366 | -7.85088 | 16268 ft | 341 kts | 96° |
| 2026-04-30 18:32 | 51.82332 | -7.77356 | 17611 ft | 346 kts | 98° |
| 2026-04-30 18:33 | 51.82221 | -7.73431 | 18274 ft | 349 kts | 99° |
| 2026-04-30 18:33 | 51.81942 | -7.65549 | 19449 ft | 356 kts | 99° |
| 2026-04-30 18:33 | 51.81802 | -7.61531 | 20043 ft | 359 kts | 99° |
| 2026-04-30 18:34 | 51.81672 | -7.57532 | 20633 ft | 362 kts | 99° |
| 2026-04-30 18:34 | 51.81425 | -7.49323 | 21807 ft | 368 kts | 99° |
| 2026-04-30 18:34 | 51.81303 | -7.45167 | 22377 ft | 371 kts | 99° |
| 2026-04-30 18:35 | 51.81177 | -7.40975 | 22972 ft | 375 kts | 99° |
| 2026-04-30 18:35 | 51.81049 | -7.36777 | 23478 ft | 380 kts | 99° |
| 2026-04-30 18:35 | 51.80913 | -7.32479 | 23957 ft | 383 kts | 99° |
| 2026-04-30 18:36 | 51.80634 | -7.23780 | 24782 ft | 390 kts | 99° |
| 2026-04-30 18:36 | 51.80490 | -7.19371 | 25222 ft | 393 kts | 99° |
| 2026-04-30 18:36 | 51.80190 | -7.10524 | 26080 ft | 399 kts | 99° |
| 2026-04-30 18:37 | 51.80034 | -7.06029 | 26505 ft | 401 kts | 99° |
| 2026-04-30 18:37 | 51.79878 | -7.01501 | 26909 ft | 404 kts | 99° |
| 2026-04-30 18:37 | 51.79720 | -6.96950 | 27311 ft | 407 kts | 99° |
| 2026-04-30 18:37 | 51.79558 | -6.92367 | 27708 ft | 409 kts | 99° |
| 2026-04-30 18:38 | 51.79396 | -6.87743 | 28101 ft | 412 kts | 99° |
| 2026-04-30 18:38 | 51.79234 | -6.83158 | 28484 ft | 414 kts | 99° |
| 2026-04-30 18:38 | 51.79067 | -6.78482 | 28813 ft | 418 kts | 99° |
| 2026-04-30 18:38 | 51.78894 | -6.73762 | 29140 ft | 421 kts | 99° |
| 2026-04-30 18:39 | 51.78717 | -6.69020 | 29485 ft | 424 kts | 99° |
| 2026-04-30 18:39 | 51.78536 | -6.64248 | 29826 ft | 426 kts | 99° |
| 2026-04-30 18:39 | 51.78350 | -6.59451 | 30172 ft | 429 kts | 99° |
| 2026-04-30 18:39 | 51.78128 | -6.54689 | 30447 ft | 430 kts | 101° |
| 2026-04-30 18:40 | 51.77789 | -6.49879 | 30727 ft | 431 kts | 103° |
| 2026-04-30 18:40 | 51.77360 | -6.45084 | 30999 ft | 432 kts | 104° |
| 2026-04-30 18:40 | 51.76884 | -6.40289 | 31267 ft | 434 kts | 104° |
| 2026-04-30 18:40 | 51.76391 | -6.35470 | 31526 ft | 435 kts | 104° |
| 2026-04-30 18:41 | 51.75901 | -6.30622 | 31770 ft | 437 kts | 104° |
| 2026-04-30 18:41 | 51.75428 | -6.25776 | 32106 ft | 437 kts | 103° |
| 2026-04-30 18:41 | 51.74976 | -6.20987 | 32441 ft | 437 kts | 103° |
| 2026-04-30 18:41 | 51.74526 | -6.16122 | 32782 ft | 437 kts | 103° |
| 2026-04-30 18:42 | 51.74082 | -6.11274 | 33023 ft | 437 kts | 103° |
| 2026-04-30 18:42 | 51.73214 | -6.01808 | 33065 ft | 417 kts | 103° |
| 2026-04-30 18:42 | 51.72781 | -5.97186 | 33054 ft | 414 kts | 103° |
| 2026-04-30 18:45 | 51.67862 | -5.46923 | 33062 ft | 412 kts | 103° |
| 2026-04-30 18:46 | 51.66939 | -5.37784 | 33054 ft | 412 kts | 103° |
| 2026-04-30 18:46 | 51.66015 | -5.28707 | 33051 ft | 413 kts | 103° |
| 2026-04-30 18:47 | 51.65088 | -5.19568 | 33055 ft | 413 kts | 103° |
| 2026-04-30 18:47 | 51.64157 | -5.10415 | 33056 ft | 413 kts | 103° |
| 2026-04-30 18:48 | 51.63222 | -5.01334 | 33059 ft | 413 kts | 103° |
| 2026-04-30 18:48 | 51.62263 | -4.92185 | 33058 ft | 413 kts | 103° |
| 2026-04-30 18:49 | 51.61311 | -4.83104 | 33042 ft | 413 kts | 103° |
| 2026-04-30 18:49 | 51.60353 | -4.73986 | 33048 ft | 413 kts | 103° |
| 2026-04-30 18:50 | 51.59384 | -4.64930 | 33057 ft | 412 kts | 104° |
| 2026-04-30 18:50 | 51.58401 | -4.55828 | 33064 ft | 412 kts | 104° |
| 2026-04-30 18:51 | 51.57415 | -4.46768 | 33067 ft | 412 kts | 104° |
| 2026-04-30 18:51 | 51.56427 | -4.37693 | 33073 ft | 412 kts | 104° |
| 2026-04-30 18:52 | 51.55439 | -4.28658 | 33055 ft | 412 kts | 104° |
| 2026-04-30 18:52 | 51.54435 | -4.19597 | 33063 ft | 412 kts | 104° |
| 2026-04-30 18:53 | 51.53416 | -4.10512 | 33065 ft | 412 kts | 104° |
| 2026-04-30 18:53 | 51.52390 | -4.01427 | 33077 ft | 413 kts | 104° |
| 2026-04-30 18:54 | 51.51365 | -3.92410 | 33074 ft | 413 kts | 104° |
| 2026-04-30 18:54 | 51.50332 | -3.83343 | 33060 ft | 413 kts | 104° |
| 2026-04-30 18:55 | 51.49295 | -3.74263 | 33076 ft | 413 kts | 104° |
| 2026-04-30 18:55 | 51.47796 | -3.60646 | 33089 ft | 415 kts | 99° |
| 2026-04-30 18:56 | 51.47008 | -3.46825 | 33093 ft | 415 kts | 99° |
| 2026-04-30 18:57 | 51.46203 | -3.32975 | 33102 ft | 415 kts | 99° |
| 2026-04-30 18:57 | 51.45651 | -3.23795 | 32956 ft | 415 kts | 99° |
| 2026-04-30 18:58 | 51.45098 | -3.14671 | 32221 ft | 406 kts | 99° |
| 2026-04-30 18:58 | 51.44822 | -3.10187 | 31717 ft | 403 kts | 99° |
| 2026-04-30 18:58 | 51.44547 | -3.05738 | 31224 ft | 399 kts | 99° |
| 2026-04-30 18:59 | 51.43997 | -2.96938 | 30254 ft | 393 kts | 99° |
| 2026-04-30 19:00 | 51.43182 | -2.84086 | 28853 ft | 380 kts | 99° |
| 2026-04-30 19:00 | 51.42914 | -2.79894 | 28413 ft | 375 kts | 99° |
| 2026-04-30 19:00 | 51.42386 | -2.71710 | 27570 ft | 367 kts | 99° |
| 2026-04-30 19:01 | 51.41865 | -2.63650 | 26738 ft | 360 kts | 100° |
| 2026-04-30 19:01 | 51.41603 | -2.59683 | 26330 ft | 356 kts | 100° |
| 2026-04-30 19:02 | 51.41078 | -2.51863 | 25488 ft | 350 kts | 100° |
| 2026-04-30 19:02 | 51.40560 | -2.44222 | 24600 ft | 345 kts | 101° |
| 2026-04-30 19:03 | 51.40050 | -2.36614 | 23689 ft | 342 kts | 101° |
| 2026-04-30 19:03 | 51.39547 | -2.29102 | 22728 ft | 336 kts | 101° |
| 2026-04-30 19:04 | 51.39042 | -2.21724 | 21838 ft | 331 kts | 101° |
| 2026-04-30 19:04 | 51.38536 | -2.14477 | 20969 ft | 327 kts | 101° |
| 2026-04-30 19:05 | 51.38024 | -2.07285 | 20109 ft | 324 kts | 102° |
| 2026-04-30 19:05 | 51.37510 | -2.00141 | 19261 ft | 322 kts | 101° |
| 2026-04-30 19:06 | 51.37000 | -1.93021 | 18412 ft | 322 kts | 101° |
| 2026-04-30 19:06 | 51.36751 | -1.89506 | 17942 ft | 321 kts | 101° |
| 2026-04-30 19:06 | 51.36249 | -1.82468 | 17139 ft | 316 kts | 101° |
| 2026-04-30 19:07 | 51.35826 | -1.76661 | 16464 ft | 314 kts | 101° |
| 2026-04-30 19:07 | 51.35571 | -1.73198 | 16059 ft | 312 kts | 101° |
| 2026-04-30 19:08 | 51.35061 | -1.66312 | 15275 ft | 311 kts | 101° |
| 2026-04-30 19:08 | 51.34554 | -1.59504 | 14480 ft | 309 kts | 101° |
| 2026-04-30 19:08 | 51.34299 | -1.56092 | 14090 ft | 308 kts | 101° |
| 2026-04-30 19:09 | 51.33790 | -1.49394 | 13671 ft | 300 kts | 101° |
| 2026-04-30 19:09 | 51.33540 | -1.46090 | 13451 ft | 299 kts | 101° |
| 2026-04-30 19:09 | 51.33290 | -1.42786 | 13227 ft | 298 kts | 100° |
| 2026-04-30 19:10 | 51.32795 | -1.36260 | 12827 ft | 297 kts | 101° |
| 2026-04-30 19:10 | 51.32293 | -1.29714 | 12403 ft | 296 kts | 101° |
| 2026-04-30 19:11 | 51.32038 | -1.26448 | 12198 ft | 295 kts | 101° |
| 2026-04-30 19:11 | 51.31527 | -1.19942 | 11777 ft | 294 kts | 101° |
| 2026-04-30 19:11 | 51.31298 | -1.16681 | 11568 ft | 295 kts | 96° |
| 2026-04-30 19:12 | 51.31273 | -1.13395 | 11345 ft | 295 kts | 94° |
| 2026-04-30 19:12 | 51.31251 | -1.10105 | 11147 ft | 295 kts | 94° |
| 2026-04-30 19:12 | 51.31225 | -1.06868 | 10939 ft | 294 kts | 94° |
| 2026-04-30 19:13 | 51.31162 | -1.00332 | 10521 ft | 294 kts | 94° |
| 2026-04-30 19:13 | 51.31098 | -0.93855 | 10078 ft | 285 kts | 94° |
| 2026-04-30 19:13 | 51.31069 | -0.90691 | 9912 ft | 283 kts | 94° |
| 2026-04-30 19:14 | 51.31037 | -0.87549 | 9706 ft | 282 kts | 94° |
| 2026-04-30 19:14 | 51.31003 | -0.84411 | 9508 ft | 282 kts | 94° |
| 2026-04-30 19:14 | 51.30967 | -0.81285 | 9308 ft | 281 kts | 94° |
| 2026-04-30 19:14 | 51.30929 | -0.78160 | 9106 ft | 280 kts | 94° |
| 2026-04-30 19:15 | 51.30893 | -0.75090 | 8905 ft | 280 kts | 94° |
| 2026-04-30 19:15 | 51.30821 | -0.68881 | 8512 ft | 278 kts | 94° |
| 2026-04-30 19:15 | 51.30784 | -0.65791 | 8313 ft | 278 kts | 94° |
| 2026-04-30 19:16 | 51.30747 | -0.62696 | 8114 ft | 277 kts | 94° |
| 2026-04-30 19:16 | 51.30707 | -0.59617 | 7914 ft | 277 kts | 94° |
| 2026-04-30 19:16 | 51.30629 | -0.53521 | 7522 ft | 275 kts | 94° |
| 2026-04-30 19:17 | 51.30590 | -0.50527 | 7371 ft | 262 kts | 94° |
| 2026-04-30 19:17 | 51.30516 | -0.44944 | 7180 ft | 242 kts | 95° |
| 2026-04-30 19:17 | 51.30687 | -0.42308 | 7185 ft | 246 kts | 70° |
| 2026-04-30 19:18 | 51.32915 | -0.39582 | 7195 ft | 258 kts | 6° |
| 2026-04-30 19:18 | 51.35124 | -0.40688 | 7182 ft | 258 kts | 315° |
| 2026-04-30 19:18 | 51.36189 | -0.42862 | 7185 ft | 242 kts | 293° |
| 2026-04-30 19:19 | 51.36643 | -0.45393 | 7192 ft | 234 kts | 269° |
| 2026-04-30 19:19 | 51.36664 | -0.47995 | 7194 ft | 234 kts | 266° |
| 2026-04-30 19:19 | 51.36668 | -0.53211 | 7190 ft | 234 kts | 266° |
| 2026-04-30 19:20 | 51.36667 | -0.55786 | 7196 ft | 234 kts | 266° |
| 2026-04-30 19:20 | 51.36662 | -0.58393 | 7192 ft | 234 kts | 266° |
| 2026-04-30 19:20 | 51.36653 | -0.63600 | 7179 ft | 234 kts | 266° |
| 2026-04-30 19:21 | 51.36648 | -0.66206 | 7127 ft | 234 kts | 266° |
| 2026-04-30 19:21 | 51.36638 | -0.71365 | 6684 ft | 232 kts | 266° |
| 2026-04-30 19:22 | 51.36849 | -0.76588 | 5780 ft | 237 kts | 293° |
| 2026-04-30 19:22 | 51.41202 | -0.79086 | 4688 ft | 237 kts | 1° |
| 2026-04-30 19:23 | 51.46087 | -0.78856 | 3658 ft | 230 kts | 27° |
| 2026-04-30 19:24 | 51.47615 | -0.75257 | 3102 ft | 192 kts | 96° |
| 2026-04-30 19:24 | 51.47625 | -0.73172 | 3009 ft | 182 kts | 96° |
| 2026-04-30 19:24 | 51.47646 | -0.69190 | 2645 ft | 174 kts | 95° |
| 2026-04-30 19:25 | 51.47678 | -0.63676 | 1965 ft | 151 kts | 95° |
| 2026-04-30 19:26 | 51.47694 | -0.60367 | 1573 ft | 146 kts | 93° |
| 2026-04-30 19:26 | 51.47710 | -0.57268 | 1194 ft | 132 kts | 92° |
| 2026-04-30 19:26 | 51.47716 | -0.55833 | 1012 ft | 129 kts | 90° |
| 2026-04-30 19:27 | 51.47730 | -0.52971 | 621 ft | 129 kts | 90° |
| 2026-04-30 19:27 | 51.47743 | -0.50106 | 338 ft | 130 kts | 90° |
| 2026-04-30 19:28 | 51.47748 | -0.48675 | 154 ft | 127 kts | 88° |
| 2026-04-30 19:28 | 51.47759 | -0.46452 | 89 ft | 56 kts | 89° |
| 2026-04-30 19:29 | 51.47759 | -0.45698 | 86 ft | 29 kts | 90° |
| 2026-04-30 19:29 | 51.47727 | -0.45481 | 86 ft | 17 kts | 143° |
| 2026-04-30 19:30 | 51.47597 | -0.45216 | 86 ft | 14 kts | 88° |
| 2026-04-30 19:30 | 51.47598 | -0.44850 | 86 ft | 18 kts | 90° |
| 2026-04-30 19:31 | 51.47504 | -0.44609 | 86 ft | 13 kts | 118° |
| 2026-04-30 19:31 | 51.47420 | -0.44560 | 86 ft | 14 kts | 179° |
| 2026-04-30 19:31 | 51.47243 | -0.44558 | 86 ft | 12 kts | 180° |
| 2026-04-30 19:32 | 51.47167 | -0.44557 | 86 ft | 11 kts | 179° |
| 2026-04-30 19:32 | 51.47097 | -0.44557 | 86 ft | 10 kts | 180° |
| 2026-04-30 19:32 | 51.47033 | -0.44557 | 86 ft | 9 kts | 180° |
| 2026-04-30 19:32 | 51.46974 | -0.44557 | 86 ft | 8 kts | 180° |
| 2026-04-30 19:33 | 51.46920 | -0.44557 | 86 ft | 7 kts | 180° |
| 2026-04-30 19:33 | 51.46871 | -0.44556 | 86 ft | 7 kts | 179° |
| 2026-04-30 19:33 | 51.46826 | -0.44555 | 86 ft | 6 kts | 179° |
| 2026-04-30 19:33 | 51.46785 | -0.44557 | 86 ft | 6 kts | 188° |
| 2026-04-30 19:34 | 51.46756 | -0.44588 | 86 ft | 5 kts | 237° |
| 2026-04-30 19:34 | 51.46752 | -0.44638 | 86 ft | 5 kts | 269° |
| 2026-04-30 19:34 | 51.46752 | -0.44730 | 86 ft | 3 kts | 271° |
| 2026-04-30 19:35 | 51.46752 | -0.44766 | 86 ft | 3 kts | 271° |
| 2026-04-30 19:35 | 51.46752 | -0.44826 | 86 ft | 9 kts | 269° |
| 2026-04-30 19:35 | 51.46765 | -0.44902 | 89 ft | 6 kts | 334° |
| 2026-04-30 19:35 | 51.46806 | -0.44911 | 89 ft | 6 kts | 352° |
| 2026-04-30 19:36 | 51.46824 | -0.44915 | 90 ft | 0 kts | 353° |